KCNW/CNW METAR and TAF weather

Enter ICAO airport designator
Station Type Date Time Source
KCNW METAR 2020/10/20 16:55 UTC NOAA

KCNW 201655Z 19006KT 10SM BKN023 27/20 A3003


Station Type Date Time Source
KCNW Decoded METAR 2020/10/20 16:55 UTC NOAA

Station name not available
Oct 20, 2020 - 12:55 PM EDT / 2020.10.20 1655 UTC
Wind: from the S (190 degrees) at 7 MPH (6 KT):0
Visibility: 10 mile(s):0
Sky conditions: mostly cloudy
Temperature: 80 F (27 C)
Dew Point: 68 F (20 C)
Relative Humidity: 65%
Pressure (altimeter): 30.03 in. Hg (1016 hPa)
ob: KCNW 201655Z 19006KT 10SM BKN023 27/20 A3003
cycle: 17

Station Type Date Time Source
KCNW TAF UTC NOAA

Error!

Example: see airport list